Time;durP1;ratioP1;P1;durP2;ratioP2;P2;SDS_P1;SDS_P2;PMS_P1;PMS_P2;Temp;Humidity;BMP_temperature;BMP_pressure;BME280_temperature;BME280_humidity;BME280_pressure;Samples;Min_cycle;Max_cycle;Signal;HPM_P1;HPM_P2
2024/04/23 00:00:15;;;;;;;5.80;5.20;;;;;;;0.34;100.00;92920.47;2087621;28;20107;-84
2024/04/23 00:01:16;;;;;;;5.43;4.93;;;;;;;0.41;100.00;92915.31;2089573;28;20056;-86
2024/04/23 00:02:17;;;;;;;5.10;4.60;;;;;;;0.43;100.00;92917.56;2089515;28;20175;-85
2024/04/23 00:03:18;;;;;;;5.72;5.07;;;;;;;0.47;100.00;92916.50;2097894;28;20050;-86
2024/04/23 00:04:19;;;;;;;5.97;5.15;;;;;;;0.40;100.00;92915.66;2093434;28;20124;-85
2024/04/23 00:05:21;;;;;;;5.80;5.28;;;;;;;0.50;100.00;92913.16;2090282;28;20072;-85
2024/04/23 00:06:22;;;;;;;5.68;5.07;;;;;;;0.48;100.00;92917.25;2097260;28;20098;-85
2024/04/23 00:07:23;;;;;;;5.80;5.25;;;;;;;0.42;100.00;92913.44;2097277;28;20027;-84
2024/04/23 00:08:24;;;;;;;6.15;5.07;;;;;;;0.42;100.00;92910.81;2106121;28;20031;-84
2024/04/23 00:09:25;;;;;;;6.28;5.57;;;;;;;0.29;100.00;92912.13;2105207;28;20030;-86
2024/04/23 00:10:27;;;;;;;6.40;5.03;;;;;;;0.37;100.00;92916.38;2097730;28;20564;-85
2024/04/23 00:11:30;;;;;;;7.93;5.18;;;;;;;0.36;100.00;92920.88;2095831;28;20040;-85
2024/04/23 00:12:31;;;;;;;5.57;5.03;;;;;;;0.37;100.00;92909.25;2096882;28;20115;-85
2024/04/23 00:13:32;;;;;;;7.20;5.55;;;;;;;0.38;100.00;92907.38;2105835;28;20414;-86
2024/04/23 00:14:33;;;;;;;5.78;5.18;;;;;;;0.39;100.00;92909.63;2089520;28;20021;-85
2024/04/23 00:15:34;;;;;;;5.70;5.13;;;;;;;0.39;100.00;92907.00;2103006;28;20543;-84
2024/04/23 00:16:35;;;;;;;6.85;5.05;;;;;;;0.46;100.00;92906.34;2109090;28;20026;-84
2024/04/23 00:17:36;;;;;;;6.00;5.38;;;;;;;0.46;100.00;92907.09;2113961;28;20471;-86
2024/04/23 00:18:37;;;;;;;6.88;5.45;;;;;;;0.44;100.00;92900.69;2111971;28;20046;-85
2024/04/23 00:19:38;;;;;;;6.13;5.35;;;;;;;0.42;100.00;92898.41;2096463;28;20024;-85
2024/04/23 00:20:39;;;;;;;6.10;5.03;;;;;;;0.33;100.00;92903.19;2089764;28;20031;-85
2024/04/23 00:21:40;;;;;;;5.65;5.15;;;;;;;0.37;100.00;92903.97;2095128;28;20373;-86
2024/04/23 00:22:41;;;;;;;5.85;5.25;;;;;;;0.38;100.00;92896.84;2101659;28;20024;-86
2024/04/23 00:23:42;;;;;;;6.65;4.68;;;;;;;0.32;100.00;92893.78;2107139;28;20096;-86
2024/04/23 00:24:43;;;;;;;6.85;6.10;;;;;;;0.49;100.00;92892.50;2103827;28;20021;-85
2024/04/23 00:25:44;;;;;;;7.22;5.00;;;;;;;0.37;100.00;92890.09;2097359;28;20052;-85
2024/04/23 00:26:54;;;;;;;8.13;4.78;;;;;;;0.38;100.00;92887.09;2088756;28;20499;-85
2024/04/23 00:27:55;;;;;;;5.57;4.72;;;;;;;0.24;100.00;92892.94;2095569;28;20497;-85
2024/04/23 00:28:56;;;;;;;6.15;4.63;;;;;;;0.28;100.00;92890.34;2105033;28;20038;-85
2024/04/23 00:29:57;;;;;;;5.63;5.00;;;;;;;0.32;100.00;92890.41;2097841;28;20022;-85
2024/04/23 00:30:58;;;;;;;5.53;4.97;;;;;;;0.31;100.00;92891.50;2089140;28;20025;-85
2024/04/23 00:31:59;;;;;;;5.63;5.13;;;;;;;0.33;100.00;92889.28;2094719;28;20020;-86
2024/04/23 00:33:00;;;;;;;5.90;5.30;;;;;;;0.30;100.00;92884.72;2090784;28;20424;-85
2024/04/23 00:34:01;;;;;;;5.72;5.13;;;;;;;0.33;100.00;92889.28;2081858;28;20041;-86
2024/04/23 00:35:02;;;;;;;6.47;5.30;;;;;;;0.26;100.00;92887.31;2089230;28;20024;-86
2024/04/23 00:36:04;;;;;;;6.53;4.97;;;;;;;0.20;100.00;92886.13;2093315;28;20044;-85
2024/04/23 00:37:05;;;;;;;6.18;4.75;;;;;;;0.30;100.00;92884.72;2089131;28;20033;-86
2024/04/23 00:38:06;;;;;;;6.55;5.22;;;;;;;0.20;100.00;92889.50;2099205;28;20484;-86
2024/04/23 00:39:07;;;;;;;5.38;4.88;;;;;;;0.25;100.00;92880.53;2086585;28;20079;-86
2024/04/23 00:40:08;;;;;;;6.25;5.28;;;;;;;0.40;100.00;92882.25;2088234;28;20501;-85
2024/04/23 00:41:09;;;;;;;5.90;5.03;;;;;;;0.27;100.00;92874.94;2088861;28;20037;-85
2024/04/23 00:42:10;;;;;;;8.02;5.18;;;;;;;0.19;100.00;92874.84;2093289;28;20020;-85
2024/04/23 00:43:11;;;;;;;5.82;5.22;;;;;;;0.18;100.00;92875.97;2090354;28;20025;-86
2024/04/23 00:44:12;;;;;;;5.00;4.50;;;;;;;0.08;100.00;92873.94;2081134;28;20112;-86
2024/04/23 00:45:15;;;;;;;5.50;4.78;;;;;;;0.13;100.00;92873.66;2097842;28;20065;-86
2024/04/23 00:46:20;;;;;;;5.57;4.90;;;;;;;0.18;100.00;92875.22;2105650;28;20022;-85
2024/04/23 00:47:21;;;;;;;6.95;5.00;;;;;;;0.18;100.00;92873.34;2090474;28;20508;-84
2024/04/23 00:48:23;;;;;;;5.30;4.80;;;;;;;0.17;100.00;92865.78;2080481;28;20092;-86
2024/04/23 00:49:24;;;;;;;6.90;5.28;;;;;;;0.15;100.00;92862.78;2090525;28;20017;-86
2024/04/23 00:50:26;;;;;;;7.80;5.07;;;;;;;0.08;100.00;92867.94;2086711;28;20037;-86
2024/04/23 00:51:27;;;;;;;5.80;5.22;;;;;;;0.11;100.00;92867.97;2083727;28;20132;-85
2024/04/23 00:52:28;;;;;;;6.30;4.93;;;;;;;0.08;100.00;92863.41;2089364;28;20143;-85
2024/04/23 00:53:29;;;;;;;6.82;5.32;;;;;;;0.03;100.00;92870.88;2089835;28;20020;-85
2024/04/23 00:54:31;;;;;;;6.95;5.38;;;;;;;-0.01;100.00;92865.56;2081637;28;20083;-85
2024/04/23 00:55:32;;;;;;;6.22;5.63;;;;;;;0.02;100.00;92862.22;2090314;28;20494;-85
2024/04/23 00:56:33;;;;;;;6.20;5.53;;;;;;;-0.02;100.00;92864.03;2091211;28;20024;-85
2024/04/23 00:57:35;;;;;;;5.95;5.03;;;;;;;-0.05;100.00;92862.13;2082753;28;20088;-85
2024/04/23 00:58:36;;;;;;;7.38;5.63;;;;;;;-0.07;100.00;92861.72;2088578;28;20044;-85
2024/04/23 00:59:37;;;;;;;5.43;4.80;;;;;;;-0.16;100.00;92872.50;2092849;28;20031;-85
2024/04/23 01:00:38;;;;;;;5.97;5.30;;;;;;;0.01;100.00;92863.34;2097786;28;20088;-86
2024/04/23 01:01:40;;;;;;;6.30;5.60;;;;;;;0.05;100.00;92863.41;2107452;28;20020;-85
2024/04/23 01:02:41;;;;;;;5.35;4.85;;;;;;;0.10;100.00;92861.22;2098881;28;20024;-85
2024/04/23 01:03:42;;;;;;;6.40;4.70;;;;;;;0.10;100.00;92855.97;2090150;28;20044;-86
2024/04/23 01:04:44;;;;;;;7.13;5.45;;;;;;;-0.01;100.00;92860.31;2087735;28;20705;-85
2024/04/23 01:05:45;;;;;;;5.38;4.82;;;;;;;-0.04;100.00;92859.16;2090938;28;20034;-86
2024/04/23 01:06:49;;;;;;;6.03;5.22;;;;;;;0.02;100.00;92856.22;2091496;28;20521;-85
2024/04/23 01:07:50;;;;;;;7.25;5.38;;;;;;;-0.05;100.00;92865.50;2094635;28;20031;-86
2024/04/23 01:08:51;;;;;;;5.80;5.20;;;;;;;-0.13;100.00;92856.03;2084719;28;20076;-86
2024/04/23 01:09:53;;;;;;;5.50;5.00;;;;;;;-0.05;100.00;92862.13;2086482;28;20060;-86
2024/04/23 01:10:53;;;;;;;6.63;5.38;;;;;;;0.01;100.00;92865.22;2082865;28;20017;-84
2024/04/23 01:11:55;;;;;;;5.47;4.82;;;;;;;0.07;100.00;92861.91;2080172;28;20549;-85
2024/04/23 01:12:56;;;;;;;5.97;5.03;;;;;;;0.10;100.00;92861.22;2097379;28;20027;-85
2024/04/23 01:13:57;;;;;;;5.82;5.22;;;;;;;0.14;100.00;92864.66;2113810;27;20111;-85
2024/04/23 01:14:58;;;;;;;5.63;5.13;;;;;;;0.08;100.00;92860.78;2112213;28;20070;-85
2024/04/23 01:16:00;;;;;;;6.05;5.13;;;;;;;0.23;100.00;92857.25;2104668;28;20031;-86
2024/04/23 01:17:03;;;;;;;5.20;4.70;;;;;;;0.25;100.00;92859.50;2086871;28;20386;-85
2024/04/23 01:18:05;;;;;;;5.35;4.85;;;;;;;0.22;100.00;92866.25;2095389;28;20754;-85
2024/04/23 01:19:15;;;;;;;5.65;5.13;;;;;;;0.05;100.00;92853.66;2081692;28;20880;-85
2024/04/23 01:20:17;;;;;;;6.30;5.25;;;;;;;-0.01;100.00;92855.03;2090796;28;20138;-85
2024/04/23 01:21:28;;;;;;;7.10;5.50;;;;;;;-0.04;100.00;92856.53;2103976;27;20036;-85
2024/04/23 01:22:42;;;;;;;;;;;;;;;-0.07;100.00;92857.22;2097066;28;20026;-86
2024/04/23 01:23:52;;;;;;;8.38;5.25;;;;;;;0.05;100.00;92858.16;2094098;28;19912;-85
2024/04/23 01:25:06;;;;;;;6.15;4.85;;;;;;;0.05;100.00;92850.25;2099445;28;20107;-85
2024/04/23 01:26:09;;;;;;;6.18;4.70;;;;;;;0.13;100.00;92851.84;2094968;28;20060;-86
2024/04/23 01:27:11;;;;;;;5.70;5.10;;;;;;;0.04;100.00;92848.72;2103338;28;20039;-86
2024/04/23 01:28:12;;;;;;;5.80;5.10;;;;;;;-0.02;100.00;92850.91;2096516;28;20052;-85
2024/04/23 01:29:14;;;;;;;6.65;5.57;;;;;;;0.10;100.00;92855.19;2082183;28;20025;-85
2024/04/23 01:30:17;;;;;;;5.55;4.95;;;;;;;0.06;100.00;92857.03;2079752;28;20043;-85
2024/04/23 01:31:19;;;;;;;5.70;4.68;;;;;;;-0.02;100.00;92850.91;2080156;28;20124;-86
2024/04/23 01:32:22;;;;;;;7.13;5.78;;;;;;;-0.07;100.00;92851.22;2080305;28;20082;-86
2024/04/23 01:33:25;;;;;;;6.85;4.90;;;;;;;0.02;100.00;92848.34;2084429;28;20023;-85
2024/04/23 01:34:29;;;;;;;6.22;5.32;;;;;;;-0.04;100.00;92859.16;2092134;28;20033;-84
2024/04/23 01:35:30;;;;;;;6.70;5.53;;;;;;;-0.09;100.00;92854.22;2083769;28;20472;-85
2024/04/23 01:36:31;;;;;;;6.95;5.13;;;;;;;-0.07;100.00;92859.84;2081140;28;20561;-85
2024/04/23 01:37:35;;;;;;;6.68;5.40;;;;;;;0.06;100.00;92857.03;2082063;28;20021;-86
2024/04/23 01:38:37;;;;;;;5.93;5.38;;;;;;;0.07;100.00;92861.16;2088902;28;20143;-85
2024/04/23 01:39:39;;;;;;;6.05;5.13;;;;;;;0.01;100.00;92859.97;2088890;28;20017;-86
2024/04/23 01:40:40;;;;;;;5.43;4.88;;;;;;;-0.01;100.00;92857.66;2083829;28;20025;-85
2024/04/23 01:41:42;;;;;;;5.97;5.13;;;;;;;-0.05;100.00;92857.63;2085348;28;20024;-85
2024/04/23 01:42:44;;;;;;;5.80;5.22;;;;;;;0.00;100.00;92856.59;2086784;28;20048;-85
2024/04/23 01:43:46;;;;;;;7.35;5.38;;;;;;;-0.08;100.00;92852.34;2086349;28;20382;-85
2024/04/23 01:44:47;;;;;;;5.82;4.95;;;;;;;-0.11;100.00;92866.19;2079978;28;20044;-86
2024/04/23 01:45:49;;;;;;;5.95;5.35;;;;;;;-0.17;100.00;92851.84;2079898;28;20040;-85
2024/04/23 01:46:52;;;;;;;5.78;5.22;;;;;;;-0.16;100.00;92855.97;2081712;28;20049;-86
2024/04/23 01:47:53;;;;;;;5.93;5.30;;;;;;;-0.18;100.00;92851.06;2080757;28;20043;-85
2024/04/23 01:48:55;;;;;;;6.78;5.13;;;;;;;0.01;100.00;92852.84;2097915;28;20050;-83
2024/04/23 01:49:56;;;;;;;7.55;5.25;;;;;;;0.08;100.00;92846.91;2100072;28;20032;-85
2024/04/23 01:50:58;;;;;;;5.90;5.28;;;;;;;0.04;100.00;92846.84;2090813;28;20028;-84
2024/04/23 01:51:59;;;;;;;6.30;4.90;;;;;;;0.11;100.00;92851.44;2088029;28;20021;-84
2024/04/23 01:53:00;;;;;;;6.43;5.40;;;;;;;-0.15;100.00;92845.09;2104888;28;20016;-85
2024/04/23 01:54:01;;;;;;;7.50;5.20;;;;;;;-0.13;100.00;92842.91;2110391;28;20058;-85
2024/04/23 01:55:03;;;;;;;5.57;5.07;;;;;;;-0.04;100.00;92847.91;2097653;28;20110;-84
2024/04/23 01:56:05;;;;;;;5.68;5.18;;;;;;;-0.13;100.00;92842.91;2088822;28;20382;-84
2024/04/23 01:57:08;;;;;;;6.20;5.10;;;;;;;-0.23;100.00;92843.50;2086588;28;20025;-84
2024/04/23 01:58:09;;;;;;;6.13;5.38;;;;;;;-0.36;100.00;92842.94;2096273;28;20103;-84
2024/04/23 01:59:10;;;;;;;5.72;5.13;;;;;;;-0.22;100.00;92844.25;2088324;28;20106;-84
2024/04/23 02:00:15;;;;;;;5.72;5.03;;;;;;;-0.35;100.00;92839.22;2088143;28;20036;-83
2024/04/23 02:01:20;;;;;;;5.72;5.13;;;;;;;-0.37;100.00;92843.28;2096785;28;20024;-84
2024/04/23 02:02:22;;;;;;;6.43;5.15;;;;;;;-0.32;100.00;92840.34;2103940;28;20060;-84
2024/04/23 02:03:24;;;;;;;6.43;5.35;;;;;;;-0.34;100.00;92842.59;2099545;28;20566;-85
2024/04/23 02:04:25;;;;;;;5.82;5.05;;;;;;;-0.35;100.00;92847.09;2090824;28;20028;-83
2024/04/23 02:05:28;;;;;;;7.03;4.82;;;;;;;-0.43;100.00;92837.59;2080414;28;20123;-84
2024/04/23 02:06:29;;;;;;;5.78;4.97;;;;;;;-0.38;100.00;92839.16;2096827;28;20491;-85
2024/04/23 02:07:30;;;;;;;5.47;4.97;;;;;;;-0.36;100.00;92839.53;2087606;28;20102;-83
2024/04/23 02:08:31;;;;;;;5.82;5.20;;;;;;;-0.34;100.00;92839.97;2082984;28;20048;-83
2024/04/23 02:09:33;;;;;;;6.35;5.50;;;;;;;-0.40;100.00;92831.63;2096061;28;20146;-84
2024/04/23 02:10:37;;;;;;;5.50;4.88;;;;;;;-0.38;100.00;92834.66;2095143;28;20461;-84
2024/04/23 02:11:40;;;;;;;6.10;5.50;;;;;;;-0.38;100.00;92836.53;2095907;28;20016;-84
2024/04/23 02:12:42;;;;;;;5.57;4.97;;;;;;;-0.37;100.00;92838.03;2099535;28;20146;-84
2024/04/23 02:13:43;;;;;;;5.95;5.32;;;;;;;-0.44;100.00;92837.91;2081688;28;20489;-84
2024/04/23 02:14:44;;;;;;;5.80;5.20;;;;;;;-0.42;100.00;92840.97;2082037;28;20443;-84
2024/04/23 02:15:45;;;;;;;5.97;5.00;;;;;;;-0.35;100.00;92846.31;2080113;28;20032;-84
2024/04/23 02:16:46;;;;;;;6.05;5.45;;;;;;;-0.41;100.00;92834.59;2088018;28;20114;-84
2024/04/23 02:17:47;;;;;;;6.38;5.75;;;;;;;-0.45;100.00;92839.78;2098740;28;20024;-84
2024/04/23 02:18:48;;;;;;;5.53;4.93;;;;;;;-0.51;100.00;92835.97;2097414;28;20101;-84
2024/04/23 02:19:49;;;;;;;7.00;5.20;;;;;;;-0.51;100.00;92834.09;2098040;28;20082;-85
2024/04/23 02:20:51;;;;;;;6.55;5.10;;;;;;;-0.46;100.00;92832.28;2090090;28;20025;-84
2024/04/23 02:21:52;;;;;;;7.13;5.55;;;;;;;-0.44;100.00;92832.69;2094513;28;20400;-83
2024/04/23 02:22:53;;;;;;;6.15;5.53;;;;;;;-0.46;100.00;92829.66;2107786;28;20046;-84
2024/04/23 02:23:54;;;;;;;5.70;5.10;;;;;;;-0.47;100.00;92833.41;2090215;28;20067;-85
2024/04/23 02:24:54;;;;;;;5.90;5.30;;;;;;;-0.42;100.00;92830.47;2093662;28;20032;-84
2024/04/23 02:27:58;;;;;;;6.38;5.30;;;;;;;-1.17;100.00;92831.91;2136658;27;20206;-84
2024/04/23 02:28:59;;;;;;;5.55;4.80;;;;;;;-1.14;100.00;92831.19;2113470;28;20093;-85
2024/04/23 02:30:00;;;;;;;7.70;5.18;;;;;;;-1.03;100.00;92838.13;2097133;28;20489;-85
2024/04/23 02:31:02;;;;;;;6.60;5.15;;;;;;;-1.04;100.00;92830.63;2112243;28;20019;-85
2024/04/23 02:32:03;;;;;;;6.05;5.45;;;;;;;-1.03;100.00;92832.91;2113810;27;20087;-84
2024/04/23 02:33:10;;;;;;;6.45;5.38;;;;;;;-1.02;100.00;92837.03;2106917;28;20028;-85
2024/04/23 02:34:11;;;;;;;8.27;5.43;;;;;;;-0.92;100.00;92827.84;2102975;28;20016;-84
2024/04/23 02:35:12;;;;;;;5.28;4.60;;;;;;;-0.94;100.00;92826.66;2106512;28;20027;-85
2024/04/23 02:36:13;;;;;;;5.90;5.13;;;;;;;-0.98;100.00;92829.22;2091266;28;20120;-84
2024/04/23 02:37:14;;;;;;;7.30;5.10;;;;;;;-0.87;100.00;92832.03;2096387;28;20156;-85
2024/04/23 02:38:15;;;;;;;6.07;5.13;;;;;;;-1.06;100.00;92828.34;2101324;28;20031;-85
2024/04/23 02:39:16;;;;;;;8.43;5.50;;;;;;;-1.03;100.00;92830.28;2098425;28;20032;-84
2024/04/23 02:40:17;;;;;;;8.68;5.70;;;;;;;-1.03;100.00;92829.50;2099790;28;20028;-84
2024/04/23 02:41:18;;;;;;;5.88;5.32;;;;;;;-1.02;100.00;92823.16;2117245;27;20118;-85
2024/04/23 02:42:18;;;;;;;5.50;5.00;;;;;;;-0.93;100.00;92828.16;2106913;28;20047;-85
2024/04/23 02:43:19;;;;;;;5.65;5.15;;;;;;;-0.85;100.00;92825.31;2094705;28;20025;-85
2024/04/23 02:44:20;;;;;;;5.80;5.20;;;;;;;-0.81;100.00;92825.38;2102883;28;20032;-85
2024/04/23 02:45:21;;;;;;;6.03;5.18;;;;;;;-0.80;100.00;92822.41;2106326;28;20315;-85
2024/04/23 02:46:22;;;;;;;5.63;5.10;;;;;;;-0.82;100.00;92819.38;2104028;28;20035;-85
2024/04/23 02:47:23;;;;;;;7.80;5.18;;;;;;;-0.85;100.00;92832.44;2107431;28;20795;-85
2024/04/23 02:48:24;;;;;;;5.50;5.00;;;;;;;-0.88;100.00;92822.63;2107218;28;20119;-85
2024/04/23 02:49:25;;;;;;;6.65;5.30;;;;;;;-0.91;100.00;92821.47;2107313;28;20036;-85
2024/04/23 02:50:38;;;;;;;6.00;5.43;;;;;;;-0.92;100.00;92825.22;2107319;28;20063;-84
2024/04/23 02:51:48;;;;;;;5.53;5.03;;;;;;;-0.98;100.00;92823.22;2105500;28;20796;-85
2024/04/23 02:52:49;;;;;;;5.88;5.03;;;;;;;-0.94;100.00;92813.53;2110864;28;20035;-85
2024/04/23 02:53:50;;;;;;;7.60;5.50;;;;;;;-0.93;100.00;92823.69;2110603;28;20427;-85
2024/04/23 02:54:51;;;;;;;5.88;5.28;;;;;;;-0.89;100.00;92819.25;2104749;28;20570;-84
2024/04/23 02:55:52;;;;;;;7.03;5.43;;;;;;;-0.88;100.00;92815.53;2102364;28;20044;-85
2024/04/23 02:56:53;;;;;;;8.05;5.90;;;;;;;-0.94;100.00;92819.56;2106918;27;20458;-86
2024/04/23 02:57:54;;;;;;;7.65;5.53;;;;;;;-0.86;100.00;92813.31;2099855;28;20034;-85
2024/04/23 02:58:55;;;;;;;5.60;5.10;;;;;;;-0.72;100.00;92818.03;2107843;28;20043;-85
2024/04/23 02:59:56;;;;;;;7.60;5.65;;;;;;;-0.82;100.00;92818.63;2116205;27;20036;-84
2024/04/23 03:00:57;;;;;;;5.95;5.35;;;;;;;-0.79;100.00;92815.28;2109593;28;20024;-85
2024/04/23 03:02:05;;;;;;;7.82;5.68;;;;;;;-0.86;100.00;92826.44;2115926;27;20036;-84
2024/04/23 03:03:06;;;;;;;6.25;5.63;;;;;;;-0.93;100.00;92821.06;2111558;28;20035;-85
2024/04/23 03:04:07;;;;;;;5.57;5.07;;;;;;;-0.95;100.00;92825.16;2099871;28;20477;-85
2024/04/23 03:05:08;;;;;;;5.82;5.22;;;;;;;-1.02;100.00;92820.53;2103898;28;20593;-86
2024/04/23 03:06:09;;;;;;;6.22;5.63;;;;;;;-0.97;100.00;92822.09;2096503;28;20033;-84
2024/04/23 03:07:13;;;;;;;6.20;5.60;;;;;;;-1.02;100.00;92820.53;2092880;28;20024;-86
2024/04/23 03:08:14;;;;;;;5.60;5.07;;;;;;;-0.96;100.00;92816.53;2105713;27;20120;-85
2024/04/23 03:09:15;;;;;;;6.00;5.40;;;;;;;-0.98;100.00;92821.34;2100603;28;20446;-84
2024/04/23 03:10:16;;;;;;;6.13;5.35;;;;;;;-0.99;100.00;92819.09;2093784;28;20504;-85
2024/04/23 03:11:17;;;;;;;6.93;5.38;;;;;;;-0.95;100.00;92804.16;2100759;28;20060;-85
2024/04/23 03:12:18;;;;;;;5.90;5.30;;;;;;;-0.96;100.00;92808.66;2111690;28;20035;-85
2024/04/23 03:13:18;;;;;;;5.80;5.20;;;;;;;-1.08;100.00;92814.06;2113046;28;20035;-85
2024/04/23 03:14:20;;;;;;;5.72;4.97;;;;;;;-1.04;100.00;92807.78;2100326;28;20024;-85
2024/04/23 03:15:20;;;;;;;6.53;5.32;;;;;;;-1.07;100.00;92811.09;2100212;28;20024;-84
2024/04/23 03:16:22;;;;;;;6.15;5.55;;;;;;;-1.13;100.00;92815.13;2112360;27;20444;-85
2024/04/23 03:17:22;;;;;;;5.85;5.22;;;;;;;-0.99;100.00;92811.22;2106512;28;20144;-85
2024/04/23 03:18:23;;;;;;;6.55;5.32;;;;;;;-0.99;100.00;92811.97;2097751;28;20028;-85
2024/04/23 03:19:25;;;;;;;6.80;5.45;;;;;;;-0.92;100.00;92817.34;2111337;28;20059;-84
2024/04/23 03:20:27;;;;;;;7.07;5.50;;;;;;;-0.96;100.00;92810.53;2100061;28;20032;-83
2024/04/23 03:21:29;;;;;;;6.32;5.55;;;;;;;-0.92;100.00;92803.44;2103093;28;20024;-85
2024/04/23 03:22:30;;;;;;;6.07;5.32;;;;;;;-0.99;100.00;92808.59;2108482;28;20024;-83
2024/04/23 03:23:31;;;;;;;5.85;5.28;;;;;;;-0.94;100.00;92814.31;2118903;27;20016;-85
2024/04/23 03:24:34;;;;;;;6.50;5.47;;;;;;;-0.89;100.00;92806.13;2110919;28;20027;-85
2024/04/23 03:25:35;;;;;;;8.63;5.30;;;;;;;-0.88;100.00;92804.25;2107093;28;20097;-84
2024/04/23 03:26:36;;;;;;;6.47;5.20;;;;;;;-0.99;100.00;92798.84;2094539;28;20056;-84
2024/04/23 03:27:36;;;;;;;7.97;5.10;;;;;;;-0.91;100.00;92802.38;2101078;28;20041;-84
2024/04/23 03:28:37;;;;;;;6.97;5.55;;;;;;;-0.90;100.00;92801.25;2102475;28;20047;-85
2024/04/23 03:29:38;;;;;;;6.18;5.57;;;;;;;-0.87;100.00;92798.69;2102051;28;20381;-84
2024/04/23 03:30:39;;;;;;;6.07;5.18;;;;;;;-0.88;100.00;92802.44;2101082;28;20102;-84
2024/04/23 03:31:40;;;;;;;10.48;5.65;;;;;;;-0.89;100.00;92803.50;2108719;28;20027;-85
2024/04/23 03:32:41;;;;;;;6.15;5.55;;;;;;;-0.88;100.00;92801.63;2111357;28;20476;-84
2024/04/23 03:33:42;;;;;;;6.60;5.97;;;;;;;-0.83;100.00;92796.13;2102431;28;20032;-84
2024/04/23 03:34:43;;;;;;;7.22;5.47;;;;;;;-0.96;100.00;92800.03;2098718;28;20028;-85
2024/04/23 03:35:44;;;;;;;6.25;5.65;;;;;;;-0.98;100.00;92799.63;2109230;28;20540;-84
2024/04/23 03:36:45;;;;;;;5.93;5.25;;;;;;;-0.89;100.00;92794.88;2110023;28;20024;-84
2024/04/23 03:37:46;;;;;;;6.18;5.40;;;;;;;-0.93;100.00;92797.44;2099226;28;20111;-84
2024/04/23 03:38:47;;;;;;;5.93;5.32;;;;;;;-0.93;100.00;92792.19;2099967;28;20025;-85
2024/04/23 03:39:48;;;;;;;6.53;5.38;;;;;;;-0.90;100.00;92791.50;2107102;28;20020;-85
2024/04/23 03:40:49;;;;;;;6.13;5.53;;;;;;;-0.89;100.00;92792.25;2114418;27;20024;-85
2024/04/23 03:41:57;;;;;;;7.18;6.05;;;;;;;-0.89;100.00;92784.41;2095691;28;20049;-84
2024/04/23 03:42:58;;;;;;;7.10;5.07;;;;;;;-0.74;100.00;92793.25;2097106;28;20112;-85
2024/04/23 03:43:59;;;;;;;5.55;4.97;;;;;;;-0.83;100.00;92790.88;2105683;28;20416;-84
2024/04/23 03:45:00;;;;;;;6.40;5.32;;;;;;;-0.84;100.00;92787.47;2091545;28;20541;-85
2024/04/23 03:46:01;;;;;;;7.18;5.22;;;;;;;-0.87;100.00;92790.06;2089206;28;20080;-84
2024/04/23 03:47:01;;;;;;;6.07;5.47;;;;;;;-1.04;100.00;92788.66;2095243;28;20028;-85
2024/04/23 03:48:02;;;;;;;8.02;5.80;;;;;;;-0.89;100.00;92793.03;2100690;28;20069;-84
2024/04/23 03:49:03;;;;;;;5.32;4.82;;;;;;;-0.93;100.00;92791.44;2093971;28;20446;-85
2024/04/23 03:50:05;;;;;;;6.82;5.53;;;;;;;-0.91;100.00;92791.88;2099434;28;20024;-86
2024/04/23 03:51:06;;;;;;;5.43;4.85;;;;;;;-0.80;100.00;92783.03;2094666;28;20091;-85
2024/04/23 03:52:08;;;;;;;6.75;5.95;;;;;;;-0.88;100.00;92778.81;2113454;27;20425;-86
2024/04/23 03:53:09;;;;;;;6.28;5.40;;;;;;;-0.80;100.00;92782.28;2104718;28;20054;-85
2024/04/23 03:54:10;;;;;;;6.15;5.55;;;;;;;-0.94;100.00;92784.69;2102156;28;20074;-83
2024/04/23 03:55:11;;;;;;;6.00;5.43;;;;;;;-1.01;100.00;92782.69;2101038;28;20058;-84
2024/04/23 03:56:12;;;;;;;6.35;5.75;;;;;;;-1.06;100.00;92781.13;2091139;28;20035;-84
2024/04/23 03:57:13;;;;;;;6.25;5.65;;;;;;;-0.95;100.00;92783.19;2098098;28;20091;-85
2024/04/23 03:58:13;;;;;;;7.68;5.35;;;;;;;-1.03;100.00;92777.06;2108174;28;20102;-85
2024/04/23 03:59:15;;;;;;;6.43;5.68;;;;;;;-1.11;100.00;92785.91;2113218;27;20425;-84
2024/04/23 04:00:16;;;;;;;6.57;5.53;;;;;;;-1.06;100.00;92781.13;2100529;28;20043;-85
2024/04/23 04:01:17;;;;;;;7.05;5.95;;;;;;;-1.09;100.00;92779.22;2103493;28;20407;-85
2024/04/23 04:06:19;;;;;;;6.10;5.50;;;;;;;-1.15;100.00;92780.63;2109326;27;20032;-84
2024/04/23 04:07:20;;;;;;;6.43;5.60;;;;;;;-1.02;100.00;92779.31;2102768;28;20459;-85
2024/04/23 04:08:21;;;;;;;8.75;6.15;;;;;;;-1.02;100.00;92779.31;2094871;28;20057;-84
2024/04/23 04:09:22;;;;;;;6.25;5.40;;;;;;;-1.03;100.00;92784.94;2084084;28;21256;-85
2024/04/23 04:10:23;;;;;;;8.88;6.00;;;;;;;-1.03;100.00;92780.44;2091846;28;20028;-85
2024/04/23 04:11:24;;;;;;;7.25;6.22;;;;;;;-1.11;100.00;92776.19;2094230;28;20028;-85
2024/04/23 04:12:25;;;;;;;7.25;6.18;;;;;;;-1.11;100.00;92778.06;2093527;28;20030;-84
2024/04/23 04:13:26;;;;;;;6.25;5.65;;;;;;;-1.04;100.00;92781.56;2090151;28;20028;-85
2024/04/23 04:14:27;;;;;;;7.20;6.22;;;;;;;-0.99;100.00;92777.13;2095145;28;20537;-85
2024/04/23 04:15:28;;;;;;;7.00;5.97;;;;;;;-1.00;100.00;92775.63;2104303;28;20020;-85
2024/04/23 04:16:29;;;;;;;7.47;6.25;;;;;;;-0.87;100.00;92774.31;2108174;28;20492;-85
2024/04/23 04:17:30;;;;;;;7.20;6.03;;;;;;;-1.04;100.00;92772.94;2097678;28;20524;-84
2024/04/23 04:18:31;;;;;;;6.75;5.90;;;;;;;-1.12;100.00;92774.69;2089754;28;20033;-85
2024/04/23 04:19:32;;;;;;;7.18;5.80;;;;;;;-1.09;100.00;92789.72;2097817;28;20024;-84
2024/04/23 04:20:33;;;;;;;7.75;6.68;;;;;;;-1.32;100.00;92776.59;2106303;28;20409;-85
2024/04/23 04:21:34;;;;;;;7.13;6.43;;;;;;;-1.17;100.00;92782.09;2105498;28;20032;-85
2024/04/23 04:22:35;;;;;;;7.13;6.22;;;;;;;-1.16;100.00;92779.09;2095085;28;20601;-84
2024/04/23 04:23:36;;;;;;;8.07;6.35;;;;;;;-1.26;100.00;92779.69;2085849;28;20702;-85
2024/04/23 04:24:37;;;;;;;7.60;6.60;;;;;;;-1.15;100.00;92772.75;2090075;28;20123;-84
2024/04/23 04:25:38;;;;;;;9.55;7.28;;;;;;;-1.22;100.00;92782.38;2089459;28;20056;-85
2024/04/23 04:26:39;;;;;;;9.40;6.75;;;;;;;-1.20;100.00;92780.16;2089654;28;20041;-85
2024/04/23 04:27:40;;;;;;;8.85;7.45;;;;;;;-1.26;100.00;92782.31;2088644;28;20040;-85
2024/04/23 04:28:41;;;;;;;8.43;6.75;;;;;;;-1.28;100.00;92774.78;2089532;28;20028;-85
2024/04/23 04:29:42;;;;;;;8.88;7.25;;;;;;;-1.12;100.00;92779.16;2104019;28;20031;-85
2024/04/23 04:30:43;;;;;;;8.60;6.90;;;;;;;-1.17;100.00;92788.09;2105524;28;20055;-84
2024/04/23 04:31:44;;;;;;;9.93;6.85;;;;;;;-1.15;100.00;92785.09;2093907;28;20017;-84
2024/04/23 04:32:45;;;;;;;9.10;7.18;;;;;;;-1.18;100.00;92781.31;2092068;28;20052;-85
2024/04/23 04:33:46;;;;;;;9.05;7.45;;;;;;;-1.14;100.00;92787.41;2104191;28;20250;-85
2024/04/23 04:34:47;;;;;;;8.23;6.63;;;;;;;-1.17;100.00;92792.56;2105050;28;20504;-85
2024/04/23 04:35:48;;;;;;;9.98;7.00;;;;;;;-1.22;100.00;92785.75;2105080;28;20072;-86
2024/04/23 04:36:49;;;;;;;9.93;7.30;;;;;;;-1.14;100.00;92791.84;2083367;28;20090;-84
2024/04/23 04:37:50;;;;;;;8.85;7.03;;;;;;;-1.05;100.00;92789.78;2098761;28;20020;-85
2024/04/23 04:38:51;;;;;;;9.32;7.40;;;;;;;-1.17;100.00;92793.31;2097585;28;20047;-85
2024/04/23 04:39:52;;;;;;;9.50;7.30;;;;;;;-1.08;100.00;92793.84;2106369;28;20016;-84
2024/04/23 04:40:53;;;;;;;10.48;7.85;;;;;;;-1.12;100.00;92792.28;2098185;28;20017;-85
2024/04/23 04:41:59;;;;;;;10.43;7.80;;;;;;;-1.02;100.00;92789.81;2097035;28;20533;-85
2024/04/23 04:43:00;;;;;;;9.00;7.32;;;;;;;-1.03;100.00;92787.56;2097250;28;20027;-84
2024/04/23 04:44:01;;;;;;;10.43;7.47;;;;;;;-1.06;100.00;92796.13;2098087;28;20074;-85
2024/04/23 04:45:03;;;;;;;9.23;7.20;;;;;;;-0.96;100.00;92785.06;2096336;28;20120;-85
2024/04/23 04:46:04;;;;;;;12.70;7.13;;;;;;;-0.94;100.00;92789.94;2090876;28;20101;-84
2024/04/23 04:47:05;;;;;;;9.90;7.05;;;;;;;-0.92;100.00;92783.25;2100796;28;20043;-85
2024/04/23 04:48:06;;;;;;;9.05;7.28;;;;;;;-0.85;100.00;92787.84;2086954;28;20060;-85
2024/04/23 04:49:07;;;;;;;8.07;7.28;;;;;;;-0.81;100.00;92788.66;2101264;28;20021;-85
2024/04/23 04:50:32;;;;;;;8.45;7.10;;;;;;;-0.81;100.00;92780.78;2100765;28;20103;-84
2024/04/23 04:51:35;;;;;;;9.32;6.85;;;;;;;-0.82;100.00;92793.13;2088349;28;20371;-85
2024/04/23 04:52:36;;;;;;;9.65;7.45;;;;;;;-0.81;100.00;92788.66;2095979;28;20067;-85
2024/04/23 04:53:38;;;;;;;7.95;7.15;;;;;;;-0.80;100.00;92785.66;2097591;28;20540;-85